createdAt,value
2018-09-29T00:01:37.353Z,75.57
2018-09-29T00:04:13.795Z,75.42
2018-09-29T00:06:46.194Z,76.37
2018-09-29T00:12:28.606Z,76.05
2018-09-29T00:14:58.582Z,76.63
2018-09-29T00:17:31.318Z,76.71
2018-09-29T00:20:01.226Z,75.87
2018-09-29T00:22:30.247Z,76.59
2018-09-29T00:24:59.298Z,77.01
2018-09-29T00:27:28.220Z,76.48
2018-09-29T00:29:58.164Z,77.27
2018-09-29T00:32:32.666Z,77.13
2018-09-29T00:35:07.684Z,77.09
2018-09-29T00:37:42.759Z,77.30
2018-09-29T00:40:13.957Z,76.75
2018-09-29T00:42:46.344Z,77.02
2018-09-29T00:45:16.296Z,77.55
2018-09-29T00:47:47.188Z,77.00
2018-09-29T00:50:21.830Z,77.92
2018-09-29T00:52:56.977Z,78.45
2018-09-29T00:55:36.968Z,78.02
2018-09-29T00:58:10.343Z,77.81
2018-09-29T01:00:39.322Z,77.42
2018-09-29T01:03:08.333Z,77.78
2018-09-29T01:05:54.888Z,77.77
2018-09-29T01:08:27.338Z,77.19
2018-09-29T01:11:14.990Z,78.07
2018-09-29T01:13:44.298Z,77.42
2018-09-29T01:16:16.562Z,77.17
2018-09-29T01:19:03.460Z,78.10
2018-09-29T01:21:37.197Z,77.95
2018-09-29T01:24:07.127Z,77.88
2018-09-29T01:26:36.097Z,78.02
2018-09-29T01:29:15.230Z,77.32
2018-09-29T01:32:02.729Z,78.23
2018-09-29T01:34:32.687Z,78.05
2018-09-29T01:37:15.013Z,77.67
2018-09-29T01:39:45.956Z,77.62
2018-09-29T01:42:18.274Z,78.29
2018-09-29T01:44:47.192Z,78.32
2018-09-29T01:47:16.177Z,78.33
2018-09-29T01:49:45.445Z,78.02
2018-09-29T01:52:15.463Z,78.13
2018-09-29T01:54:48.060Z,78.09
2018-09-29T01:57:27.123Z,78.17
2018-09-29T02:00:14.493Z,78.14
2018-09-29T02:02:47.196Z,77.85
2018-09-29T02:05:16.148Z,77.93
2018-09-29T02:07:45.069Z,77.82
2018-09-29T02:10:14.066Z,78.48
2018-09-29T02:12:46.743Z,77.56
2018-09-29T02:15:27.134Z,78.15
2018-09-29T02:18:16.878Z,78.52
2018-09-29T02:20:45.774Z,78.40
2018-09-29T02:23:16.764Z,78.81
2018-09-29T02:25:45.632Z,78.16
2018-09-29T02:28:19.780Z,79.12
2018-09-29T02:30:52.974Z,78.29
2018-09-29T02:33:21.886Z,78.89
2018-09-29T02:35:50.782Z,79.63
2018-09-29T02:38:33.416Z,78.33
2018-09-29T02:41:02.291Z,78.66
2018-09-29T02:43:31.216Z,78.83
2018-09-29T02:46:00.245Z,78.66
2018-09-29T02:48:32.352Z,79.11
2018-09-29T02:51:01.250Z,78.66
2018-09-29T02:53:33.240Z,79.21
2018-09-29T02:56:15.925Z,78.81
2018-09-29T02:58:44.811Z,79.05
2018-09-29T03:01:13.690Z,78.65
2018-09-29T03:03:47.837Z,78.81
2018-09-29T03:06:22.672Z,78.72
2018-09-29T03:08:53.617Z,78.80
2018-09-29T03:11:22.547Z,78.85
2018-09-29T03:14:09.192Z,78.96
2018-09-29T03:16:43.637Z,78.56
2018-09-29T03:19:18.629Z,78.20
2018-09-29T03:21:47.676Z,78.57
2018-09-29T03:24:22.362Z,78.52
2018-09-29T03:26:57.201Z,77.75
2018-09-29T03:29:26.078Z,77.80
2018-09-29T03:31:55.083Z,77.67
2018-09-29T03:34:24.679Z,77.16
2018-09-29T03:37:07.375Z,77.54
2018-09-29T03:39:44.220Z,77.76
2018-09-29T03:42:13.278Z,77.70
2018-09-29T03:44:43.475Z,77.27
2018-09-29T03:47:13.075Z,77.26
2018-09-29T03:49:42.582Z,77.39
2018-09-29T03:52:21.140Z,78.38
2018-09-29T03:54:50.994Z,77.41
2018-09-29T03:57:23.461Z,78.63
2018-09-29T03:59:52.647Z,77.77
2018-09-29T04:02:23.960Z,78.60
2018-09-29T04:04:56.987Z,78.18
2018-09-29T04:07:26.310Z,78.34
2018-09-29T04:09:55.879Z,79.13
2018-09-29T04:12:28.242Z,79.22
2018-09-29T04:14:59.335Z,78.09
2018-09-29T04:17:28.609Z,78.28
2018-09-29T04:20:01.149Z,79.17
2018-09-29T04:22:31.170Z,78.41
2018-09-29T04:25:06.243Z,78.38
2018-09-29T04:27:39.079Z,77.85
2018-09-29T04:30:18.795Z,78.52
2018-09-29T04:32:48.802Z,78.17
2018-09-29T04:35:18.933Z,78.52
2018-09-29T04:37:47.974Z,77.99
2018-09-29T04:40:17.148Z,78.87
2018-09-29T04:42:47.293Z,78.26
2018-09-29T04:45:18.216Z,77.97
2018-09-29T04:47:48.319Z,78.95
2018-09-29T04:50:21.025Z,78.59
2018-09-29T04:52:50.154Z,78.08
2018-09-29T04:55:19.126Z,77.77
2018-09-29T04:57:50.011Z,77.39
2018-09-29T05:00:22.107Z,78.00
2018-09-29T05:02:56.390Z,78.34
2018-09-29T05:05:27.464Z,77.63
2018-09-29T05:07:58.396Z,78.43
2018-09-29T05:10:31.150Z,78.34
2018-09-29T05:13:01.093Z,77.98
2018-09-29T05:15:30.013Z,77.98
2018-09-29T05:18:05.125Z,79.03
2018-09-29T05:20:34.084Z,79.58
2018-09-29T05:23:10.010Z,79.42
2018-09-29T05:25:38.953Z,78.59
2018-09-29T05:28:07.897Z,78.52
2018-09-29T05:30:38.157Z,78.88
2018-09-29T05:33:07.244Z,79.02
2018-09-29T05:35:38.141Z,79.63
2018-09-29T05:38:08.061Z,78.94
2018-09-29T05:40:37.042Z,79.06
2018-09-29T05:43:24.927Z,79.88
2018-09-29T05:45:53.910Z,78.63
2018-09-29T05:48:26.721Z,78.83
2018-09-29T05:50:59.730Z,78.48
2018-09-29T05:53:30.682Z,78.01
2018-09-29T05:55:59.768Z,77.27
2018-09-29T05:58:30.738Z,78.11
2018-09-29T06:01:02.930Z,78.28
2018-09-29T06:03:34.263Z,78.63
2018-09-29T06:06:22.440Z,78.42
2018-09-29T06:08:56.093Z,78.06
2018-09-29T06:11:27.004Z,78.20
2018-09-29T06:14:00.209Z,78.66
2018-09-29T06:16:40.980Z,78.35
2018-09-29T06:24:58.772Z,78.76
2018-09-29T06:27:27.746Z,78.83
2018-09-29T06:30:00.436Z,79.21
2018-09-29T06:32:29.466Z,79.19
2018-09-29T06:35:02.407Z,79.01
2018-09-29T06:37:37.746Z,80.07
2018-09-29T06:40:17.695Z,80.03
2018-09-29T06:42:50.152Z,79.73
2018-09-29T06:45:20.101Z,79.41
2018-09-29T06:47:49.113Z,79.79
2018-09-29T06:50:21.251Z,79.69
2018-09-29T06:52:51.193Z,79.52
2018-09-29T06:55:20.163Z,79.67
2018-09-29T06:58:01.121Z,79.99
2018-09-29T07:00:31.040Z,80.25
2018-09-29T07:03:02.039Z,81.10
2018-09-29T07:05:48.041Z,80.08
2018-09-29T07:08:16.979Z,79.76
2018-09-29T07:10:57.940Z,80.22
2018-09-29T07:13:39.016Z,79.95
2018-09-29T07:16:15.948Z,80.33
2018-09-29T07:18:46.933Z,80.33
2018-09-29T07:21:16.228Z,80.11
2018-09-29T07:23:46.165Z,80.58
2018-09-29T07:26:15.339Z,80.53
2018-09-29T07:28:56.869Z,80.19
2018-09-29T07:31:27.030Z,80.74
2018-09-29T07:34:09.029Z,80.22
2018-09-29T07:36:38.061Z,80.48
2018-09-29T07:39:09.053Z,80.34
2018-09-29T07:41:37.979Z,79.36
2018-09-29T07:44:11.011Z,80.16
2018-09-29T07:46:47.349Z,79.74
2018-09-29T07:49:16.397Z,80.39
2018-09-29T07:51:49.808Z,79.58
2018-09-29T07:54:22.126Z,79.90
2018-09-29T07:56:56.083Z,79.24
2018-09-29T07:59:26.823Z,78.67
2018-09-29T08:02:10.036Z,79.00
2018-09-29T08:04:40.072Z,79.19
2018-09-29T08:07:09.163Z,78.92
2018-09-29T08:09:39.127Z,77.91
2018-09-29T08:15:07.982Z,78.33
2018-09-29T08:17:42.667Z,78.33
2018-09-29T08:20:11.644Z,77.88
2018-09-29T08:22:51.479Z,75.34
2018-09-29T08:25:34.885Z,76.22
2018-09-29T08:28:09.400Z,75.71
2018-09-29T08:30:45.821Z,74.97
2018-09-29T08:33:19.706Z,73.49
2018-09-29T08:35:50.796Z,72.96
2018-09-29T08:38:24.839Z,73.61
2018-09-29T08:40:57.315Z,73.09
2018-09-29T08:43:26.201Z,70.75
2018-09-29T08:46:00.768Z,69.48
2018-09-29T08:48:33.341Z,69.18
2018-09-29T08:51:04.376Z,69.37
2018-09-29T08:53:33.861Z,67.36
2018-09-29T08:56:09.571Z,68.22
2018-09-29T08:58:43.665Z,69.04
2018-09-29T09:01:18.443Z,69.19
2018-09-29T09:03:48.413Z,68.29
2018-09-29T09:06:18.344Z,68.14
2018-09-29T09:08:53.769Z,68.05
2018-09-29T09:11:26.001Z,65.72
2018-09-29T09:13:55.247Z,66.03
2018-09-29T09:16:32.422Z,65.14
2018-09-29T09:19:09.411Z,64.41
2018-09-29T09:21:38.386Z,63.34
2018-09-29T09:24:07.470Z,62.56
2018-09-29T09:26:38.414Z,59.85
2018-09-29T09:29:08.452Z,60.86
2018-09-29T09:31:39.653Z,61.23
2018-09-29T09:34:20.976Z,60.84
2018-09-29T09:37:04.592Z,58.96
2018-09-29T09:39:35.270Z,57.91
2018-09-29T09:42:09.184Z,58.37
2018-09-29T09:44:38.597Z,57.94
2018-09-29T09:47:12.498Z,57.66
2018-09-29T09:49:41.858Z,57.62
2018-09-29T09:52:17.745Z,56.87
2018-09-29T09:54:52.365Z,57.42
2018-09-29T09:57:21.292Z,58.28
2018-09-29T09:59:50.289Z,57.56
2018-09-29T10:02:28.472Z,58.14
2018-09-29T10:04:57.777Z,56.49
2018-09-29T10:07:32.473Z,55.49
2018-09-29T10:10:01.689Z,56.52
2018-09-29T10:12:30.753Z,54.88
2018-09-29T10:15:00.593Z,54.69
2018-09-29T10:17:33.704Z,55.44
2018-09-29T10:20:06.048Z,55.87
2018-09-29T10:22:39.060Z,54.76
2018-09-29T10:25:09.117Z,53.92
2018-09-29T10:27:46.285Z,53.00
2018-09-29T10:30:21.158Z,53.17
2018-09-29T10:32:51.270Z,54.27
2018-09-29T10:35:24.524Z,53.75
2018-09-29T10:37:58.214Z,53.74
2018-09-29T10:40:27.209Z,53.64
2018-09-29T10:42:56.181Z,53.24
2018-09-29T10:45:25.540Z,53.55
2018-09-29T10:48:12.944Z,53.24
2018-09-29T10:50:46.381Z,53.64
2018-09-29T10:53:17.295Z,53.66
2018-09-29T10:55:46.383Z,53.39
2018-09-29T10:58:16.461Z,52.69
2018-09-29T11:00:54.963Z,51.99
2018-09-29T11:03:28.310Z,52.61
2018-09-29T11:05:59.341Z,52.82
2018-09-29T11:08:29.160Z,52.16
2018-09-29T11:11:03.214Z,49.69
2018-09-29T11:13:37.636Z,55.32
2018-09-29T11:16:07.965Z,50.75
2018-09-29T11:18:39.281Z,50.69
2018-09-29T11:21:09.182Z,49.33
2018-09-29T11:23:38.099Z,49.05
2018-09-29T11:26:10.671Z,48.86
2018-09-29T11:28:43.313Z,48.18
2018-09-29T11:31:14.563Z,48.35
2018-09-29T11:33:43.645Z,48.56
2018-09-29T11:36:13.158Z,47.76
2018-09-29T11:38:42.590Z,47.29
2018-09-29T11:41:13.149Z,46.13
2018-09-29T11:43:45.740Z,47.14
2018-09-29T11:46:19.675Z,48.21
2018-09-29T11:48:49.292Z,47.66
2018-09-29T11:51:18.925Z,47.92
2018-09-29T11:53:52.327Z,48.15
2018-09-29T11:56:26.340Z,48.81
2018-09-29T11:58:56.168Z,48.55
2018-09-29T12:01:36.492Z,47.59
2018-09-29T12:04:06.472Z,47.29
2018-09-29T12:06:37.104Z,46.62
2018-09-29T12:09:09.912Z,46.97
2018-09-29T12:11:43.212Z,46.25
2018-09-29T12:14:31.006Z,46.55
2018-09-29T12:17:03.727Z,47.42
2018-09-29T12:19:39.575Z,45.22
2018-09-29T12:22:10.662Z,46.27
2018-09-29T12:24:39.718Z,46.02
2018-09-29T12:27:10.714Z,45.99
2018-09-29T12:29:46.079Z,45.64
2018-09-29T12:32:20.387Z,46.40
2018-09-29T12:34:53.386Z,46.03
2018-09-29T12:37:22.371Z,46.02
2018-09-29T12:39:53.319Z,45.90
2018-09-29T12:42:25.819Z,44.79
2018-09-29T12:44:54.949Z,45.37
2018-09-29T12:47:23.822Z,43.99
2018-09-29T12:49:52.876Z,44.87
2018-09-29T12:52:22.950Z,44.54
2018-09-29T12:54:53.971Z,45.07
2018-09-29T12:57:23.176Z,44.10
2018-09-29T12:59:52.342Z,44.53
2018-09-29T13:02:21.343Z,42.83
2018-09-29T13:05:00.373Z,43.03
2018-09-29T13:07:29.394Z,42.85
2018-09-29T13:10:01.721Z,42.56
2018-09-29T13:12:32.773Z,42.74
2018-09-29T13:15:01.717Z,42.01
2018-09-29T13:17:35.361Z,42.39
2018-09-29T13:20:08.030Z,41.99
2018-09-29T13:22:36.982Z,41.95
2018-09-29T13:25:07.332Z,42.55
2018-09-29T13:27:36.282Z,42.34
2018-09-29T13:30:17.630Z,42.34
2018-09-29T13:32:53.049Z,42.91
2018-09-29T13:35:22.046Z,41.93
2018-09-29T13:37:51.073Z,42.37
2018-09-29T13:40:20.082Z,41.99
2018-09-29T13:42:50.154Z,41.04
2018-09-29T13:45:23.584Z,41.68
2018-09-29T13:47:52.659Z,41.38
2018-09-29T13:50:32.188Z,41.51
2018-09-29T13:53:02.236Z,41.99
2018-09-29T13:55:33.308Z,41.41
2018-09-29T13:58:02.290Z,41.56
2018-09-29T14:00:32.449Z,41.57
2018-09-29T14:03:01.506Z,42.03
2018-09-29T14:05:34.974Z,41.78
2018-09-29T14:08:05.219Z,40.83
2018-09-29T14:10:35.241Z,39.67
2018-09-29T14:13:08.431Z,40.52
2018-09-29T14:15:37.575Z,39.63
2018-09-29T14:18:07.635Z,40.36
2018-09-29T14:20:36.686Z,41.79
2018-09-29T14:23:07.248Z,41.20
2018-09-29T14:25:37.224Z,40.95
2018-09-29T14:28:06.276Z,41.60
2018-09-29T14:30:36.323Z,41.99
2018-09-29T14:33:05.431Z,41.86
2018-09-29T14:35:34.472Z,41.68
2018-09-29T14:38:03.565Z,41.53
2018-09-29T14:40:32.753Z,41.58
2018-09-29T14:43:03.856Z,42.00
2018-09-29T14:45:33.879Z,40.98
2018-09-29T14:48:02.977Z,40.89
2018-09-29T14:50:34.197Z,41.78
2018-09-29T14:53:05.195Z,41.32
2018-09-29T14:55:37.619Z,41.96
2018-09-29T14:58:06.818Z,40.84
2018-09-29T15:00:36.071Z,40.50
2018-09-29T15:03:09.609Z,40.35
2018-09-29T15:05:39.580Z,40.55
2018-09-29T15:08:08.547Z,41.69
2018-09-29T15:10:40.845Z,41.60
2018-09-29T15:13:14.810Z,41.34
2018-09-29T15:15:44.052Z,42.09
2018-09-29T15:18:13.255Z,42.19
2018-09-29T15:20:48.471Z,42.65
2018-09-29T15:23:17.589Z,43.73
2018-09-29T15:25:50.871Z,43.00
2018-09-29T15:28:19.984Z,44.05
2018-09-29T15:30:48.912Z,43.25
2018-09-29T15:33:18.037Z,43.27
2018-09-29T15:35:48.926Z,42.57
2018-09-29T15:38:18.864Z,42.98
2018-09-29T15:40:47.901Z,43.48
2018-09-29T15:43:16.829Z,43.55
2018-09-29T15:45:50.279Z,43.10
2018-09-29T15:48:19.271Z,43.12
2018-09-29T15:50:50.155Z,43.33
2018-09-29T15:53:25.679Z,43.71
2018-09-29T15:55:55.613Z,43.89
2018-09-29T15:58:25.599Z,43.94
2018-09-29T16:00:54.874Z,43.20
2018-09-29T16:03:28.722Z,43.37
2018-09-29T16:05:59.678Z,43.66
2018-09-29T16:08:32.746Z,44.23
2018-09-29T16:11:14.765Z,43.94
2018-09-29T16:13:48.897Z,44.33
2018-09-29T16:16:17.928Z,43.94
2018-09-29T16:18:46.884Z,44.67
2018-09-29T16:21:17.170Z,44.46
2018-09-29T16:23:50.218Z,45.10
2018-09-29T16:26:19.306Z,45.08
2018-09-29T16:28:50.231Z,45.09
2018-09-29T16:31:19.232Z,46.02
2018-09-29T16:33:49.291Z,46.52
2018-09-29T16:36:18.259Z,46.82
2018-09-29T16:38:49.611Z,46.72
2018-09-29T16:41:25.673Z,47.02
2018-09-29T16:43:54.648Z,48.08
2018-09-29T16:46:37.369Z,48.62
2018-09-29T16:49:09.487Z,48.77
2018-09-29T16:54:24.419Z,49.70
2018-09-29T16:56:59.035Z,50.94
2018-09-29T16:59:29.975Z,52.10
2018-09-29T17:01:59.934Z,52.67
2018-09-29T17:04:30.086Z,54.46
2018-09-29T17:07:04.950Z,55.50
2018-09-29T17:09:39.749Z,53.44
2018-09-29T17:12:08.696Z,53.29
2018-09-29T17:14:42.356Z,53.52
2018-09-29T17:17:16.345Z,53.61
2018-09-29T17:19:45.373Z,53.79
2018-09-29T17:25:07.506Z,54.43
2018-09-29T17:27:42.623Z,55.13
2018-09-29T17:30:15.044Z,55.06
2018-09-29T17:32:46.071Z,55.49
2018-09-29T17:35:15.042Z,55.85
2018-09-29T17:37:45.301Z,55.55
2018-09-29T17:40:20.728Z,56.08
2018-09-29T17:43:02.558Z,56.78
2018-09-29T17:45:35.819Z,56.64
2018-09-29T17:48:10.980Z,56.88
2018-09-29T17:50:41.934Z,57.25
2018-09-29T17:53:11.927Z,57.32
2018-09-29T17:55:54.782Z,57.24
2018-09-29T17:58:23.764Z,58.18
2018-09-29T18:00:53.771Z,57.53
2018-09-29T18:03:27.204Z,58.25
2018-09-29T18:05:57.115Z,58.41
2018-09-29T18:08:26.048Z,58.56
2018-09-29T18:11:09.825Z,58.40
2018-09-29T18:13:39.037Z,58.43
2018-09-29T18:16:08.317Z,58.68
2018-09-29T18:18:37.303Z,58.49
2018-09-29T18:21:13.751Z,59.29
2018-09-29T18:23:46.049Z,59.63
2018-09-29T18:26:19.385Z,59.02
2018-09-29T18:28:52.998Z,59.16
2018-09-29T18:31:22.931Z,59.17
2018-09-29T18:33:51.936Z,59.46
2018-09-29T18:36:25.132Z,58.93
2018-09-29T18:38:55.146Z,58.98
2018-09-29T18:41:26.085Z,59.16
2018-09-29T18:43:55.429Z,58.83
2018-09-29T18:46:24.396Z,59.27
2018-09-29T18:49:00.663Z,59.91
2018-09-29T18:51:30.616Z,59.66
2018-09-29T18:54:03.841Z,60.09
2018-09-29T18:56:35.406Z,60.83
2018-09-29T18:59:17.680Z,61.20
2018-09-29T19:01:52.290Z,61.81
2018-09-29T19:04:22.086Z,62.16
2018-09-29T19:06:51.339Z,62.06
2018-09-29T19:09:23.707Z,62.19
2018-09-29T19:11:57.543Z,62.29
2018-09-29T19:14:27.483Z,62.44
2018-09-29T19:16:56.469Z,63.45
2018-09-29T19:19:27.490Z,63.39
2018-09-29T19:22:01.215Z,63.58
2018-09-29T19:24:35.389Z,63.41
2018-09-29T19:27:06.470Z,63.45
2018-09-29T19:29:40.134Z,63.45
2018-09-29T19:32:16.399Z,63.50
2018-09-29T19:34:51.402Z,63.32
2018-09-29T19:37:20.788Z,63.24
2018-09-29T19:40:04.544Z,64.21
2018-09-29T19:42:36.646Z,63.83
2018-09-29T19:45:07.609Z,63.89
2018-09-29T19:47:36.560Z,63.83
2018-09-29T19:50:06.988Z,63.49
2018-09-29T19:52:39.174Z,63.74
2018-09-29T19:55:08.146Z,64.50
2018-09-29T19:57:37.149Z,64.27
2018-09-29T20:00:06.150Z,64.27
2018-09-29T20:02:35.112Z,64.85
2018-09-29T20:05:27.747Z,64.68
2018-09-29T20:08:06.914Z,65.19
2018-09-29T20:10:36.920Z,65.11
2018-09-29T20:13:06.918Z,64.52
2018-09-29T20:15:41.553Z,64.75
2018-09-29T20:18:11.505Z,65.22
2018-09-29T20:20:48.157Z,66.41
2018-09-29T20:23:18.122Z,67.13
2018-09-29T20:25:47.064Z,66.49
2018-09-29T20:28:19.501Z,66.00
2018-09-29T20:30:48.604Z,68.14
2018-09-29T20:33:28.782Z,64.94
2018-09-29T20:35:57.842Z,66.41
2018-09-29T20:38:28.960Z,67.27
2018-09-29T20:41:16.423Z,67.08
2018-09-29T20:43:45.294Z,67.56
2018-09-29T20:46:14.493Z,68.05
2018-09-29T20:48:46.897Z,67.36
2018-09-29T20:51:35.726Z,67.86
2018-09-29T20:54:28.387Z,67.28
2018-09-29T20:57:02.317Z,67.17
2018-09-29T20:59:32.292Z,67.61
2018-09-29T21:02:01.254Z,67.93
2018-09-29T21:04:30.189Z,67.63
2018-09-29T21:07:18.219Z,68.13
2018-09-29T21:09:59.794Z,67.83
2018-09-29T21:12:29.041Z,67.80
2018-09-29T21:15:04.074Z,68.46
2018-09-29T21:17:35.810Z,69.11
2018-09-29T21:20:05.660Z,68.96
2018-09-29T21:22:40.770Z,68.42
2018-09-29T21:25:11.213Z,69.15
2018-09-29T21:27:46.299Z,68.86
2018-09-29T21:30:27.910Z,68.94
2018-09-29T21:32:58.370Z,68.39
2018-09-29T21:35:34.446Z,68.23
2018-09-29T21:38:04.350Z,69.12
2018-09-29T21:40:33.466Z,68.97
2018-09-29T21:43:09.721Z,68.95
2018-09-29T21:45:44.460Z,68.62
2018-09-29T21:48:13.490Z,68.65
2018-09-29T21:53:44.617Z,69.17
2018-09-29T21:56:17.053Z,69.54
2018-09-29T21:58:47.042Z,69.36
2018-09-29T22:01:25.346Z,68.46
2018-09-29T22:03:59.212Z,69.97
2018-09-29T22:06:31.849Z,69.81
2018-09-29T22:09:04.993Z,69.32
2018-09-29T22:11:50.951Z,70.09
2018-09-29T22:14:30.304Z,70.25
2018-09-29T22:17:21.823Z,70.47
2018-09-29T22:19:51.761Z,70.09
2018-09-29T22:22:20.706Z,69.71
2018-09-29T22:24:49.670Z,70.75
2018-09-29T22:27:26.093Z,70.80
2018-09-29T22:29:55.081Z,71.18
2018-09-29T22:32:27.222Z,70.90
2018-09-29T22:34:59.382Z,71.58
2018-09-29T22:37:41.119Z,71.47
2018-09-29T22:40:11.046Z,71.12
2018-09-29T22:42:59.378Z,71.91
2018-09-29T22:45:31.371Z,71.72
2018-09-29T22:48:02.382Z,71.42
2018-09-29T22:50:31.347Z,71.80
2018-09-29T22:53:05.303Z,71.63
2018-09-29T22:55:40.909Z,71.82
2018-09-29T22:58:11.837Z,72.15
2018-09-29T23:00:53.733Z,72.68
2018-09-29T23:03:36.348Z,72.04
2018-09-29T23:06:05.284Z,71.87
2018-09-29T23:08:35.498Z,72.73
2018-09-29T23:11:04.859Z,72.68
2018-09-29T23:13:36.828Z,72.42
2018-09-29T23:16:11.327Z,73.06
2018-09-29T23:18:40.185Z,72.52
2018-09-29T23:21:11.112Z,73.62
2018-09-29T23:23:59.620Z,73.35
2018-09-29T23:26:28.569Z,73.41
2018-09-29T23:31:53.308Z,73.98
2018-09-29T23:34:28.104Z,73.23
2018-09-29T23:37:02.797Z,73.31
2018-09-29T23:39:31.792Z,73.92
2018-09-29T23:42:03.990Z,74.09
2018-09-29T23:44:50.822Z,73.78
2018-09-29T23:47:32.643Z,74.29
2018-09-29T23:50:01.521Z,73.18
2018-09-29T23:52:30.423Z,73.40
2018-09-29T23:54:59.319Z,73.22
2018-09-29T23:57:28.268Z,73.58
2018-09-29T23:59:57.164Z,73.83
